Time,TemperatureF,DewpointF,PressureIn,WindDirection,WindDirectionDegrees,WindSpeedMPH,WindSpeedGustMPH,Humidity,HourlyPrecipIn,Conditions,Clouds,dailyrainin,SolarRadiationWatts/m^2,SoftwareType,DateUTC
2013-03-29 00:03:00,43.0,27.0,-100.00,NNE,15,2.0,8.0,52,0.00,,,-99.99,0.000000,,2013-03-29 05:03:00,
2013-03-29 00:33:00,43.0,26.0,-100.00,NNE,14,0.0,6.0,50,0.00,,,-99.99,0.000000,,2013-03-29 05:33:00,
2013-03-29 00:43:00,43.0,26.0,-100.00,NNE,14,0.0,6.0,50,0.00,,,-99.99,0.000000,,2013-03-29 05:43:00,
2013-03-29 00:52:00,43.0,26.0,-100.00,NNE,14,0.0,6.0,50,0.00,,,-99.99,0.000000,,2013-03-29 05:52:00,
2013-03-29 01:03:00,43.0,26.0,-100.00,NNE,14,0.0,6.0,50,0.00,,,-99.99,0.000000,,2013-03-29 06:03:00,
2013-03-29 01:32:00,44.0,27.0,-100.00,NNE,20,3.0,7.0,50,0.00,,,-99.99,0.000000,,2013-03-29 06:32:00,
2013-03-29 01:42:00,44.0,27.0,-100.00,NNE,20,3.0,7.0,50,0.00,,,-99.99,0.000000,,2013-03-29 06:42:00,
2013-03-29 01:52:00,44.0,27.0,-100.00,NNE,20,3.0,7.0,50,0.00,,,-99.99,0.000000,,2013-03-29 06:52:00,
2013-03-29 02:03:00,44.0,27.0,-100.00,NNE,20,3.0,7.0,50,0.00,,,-99.99,0.000000,,2013-03-29 07:03:00,
2013-03-29 02:32:00,44.0,26.0,-100.00,NNE,28,0.0,7.0,48,0.00,,,-99.99,0.000000,,2013-03-29 07:32:00,
2013-03-29 02:42:00,44.0,26.0,-100.00,NNE,28,0.0,7.0,48,0.00,,,-99.99,0.000000,,2013-03-29 07:42:00,
2013-03-29 02:52:00,44.0,26.0,-100.00,NNE,28,0.0,7.0,48,0.00,,,-99.99,0.000000,,2013-03-29 07:52:00,
2013-03-29 03:02:00,44.0,26.0,-100.00,NNE,28,0.0,7.0,48,0.00,,,-99.99,0.000000,,2013-03-29 08:02:00,
2013-03-29 03:32:00,45.0,26.0,-100.00,East,83,0.0,5.0,47,0.00,,,-99.99,0.000000,,2013-03-29 08:32:00,
2013-03-29 03:42:00,45.0,26.0,-100.00,East,83,0.0,5.0,47,0.00,,,-99.99,0.000000,,2013-03-29 08:42:00,
2013-03-29 03:53:00,45.0,26.0,-100.00,East,83,0.0,5.0,47,0.00,,,-99.99,0.000000,,2013-03-29 08:53:00,
2013-03-29 04:02:00,45.0,26.0,-100.00,East,83,0.0,5.0,47,0.00,,,-99.99,0.000000,,2013-03-29 09:02:00,
2013-03-29 04:33:00,43.0,26.0,-100.00,SE,129,0.0,0.0,51,0.00,,,-99.99,0.000000,,2013-03-29 09:33:00,
2013-03-29 04:43:00,43.0,26.0,-100.00,SE,129,0.0,0.0,51,0.00,,,-99.99,0.000000,,2013-03-29 09:43:00,
2013-03-29 04:52:00,43.0,26.0,-100.00,SE,129,0.0,0.0,51,0.00,,,-99.99,0.000000,,2013-03-29 09:52:00,
2013-03-29 05:03:00,43.0,26.0,-100.00,SE,129,0.0,0.0,51,0.00,,,-99.99,0.000000,,2013-03-29 10:03:00,
2013-03-29 05:33:00,42.0,26.0,-100.00,ESE,118,0.0,6.0,52,0.00,,,-99.99,0.000000,,2013-03-29 10:33:00,
2013-03-29 05:42:00,42.0,26.0,-100.00,ESE,118,0.0,6.0,52,0.00,,,-99.99,0.000000,,2013-03-29 10:42:00,
2013-03-29 05:53:00,42.0,26.0,-100.00,ESE,118,0.0,6.0,52,0.00,,,-99.99,0.000000,,2013-03-29 10:53:00,
2013-03-29 06:04:00,42.0,26.0,-100.00,ESE,118,0.0,6.0,52,0.00,,,-99.99,0.000000,,2013-03-29 11:04:00,
2013-03-29 06:33:00,41.0,24.0,-100.00,ESE,107,0.0,9.0,50,0.00,,,-99.99,0.000000,,2013-03-29 11:33:00,
2013-03-29 06:43:00,41.0,24.0,-100.00,ESE,107,0.0,9.0,50,0.00,,,-99.99,0.000000,,2013-03-29 11:43:00,
2013-03-29 06:53:00,41.0,24.0,-100.00,ESE,107,0.0,9.0,50,0.00,,,-99.99,0.000000,,2013-03-29 11:53:00,
2013-03-29 07:03:00,41.0,24.0,-100.00,ESE,107,0.0,9.0,50,0.00,,,-99.99,0.000000,,2013-03-29 12:03:00,
2013-03-29 07:33:00,43.0,20.0,-100.00,ESE,115,4.0,8.0,39,0.00,,,-99.99,8.000000,,2013-03-29 12:33:00,
2013-03-29 07:43:00,43.0,20.0,-100.00,ESE,115,4.0,8.0,39,0.00,,,-99.99,8.000000,,2013-03-29 12:43:00,
2013-03-29 07:53:00,43.0,20.0,-100.00,ESE,115,4.0,8.0,39,0.00,,,-99.99,8.000000,,2013-03-29 12:53:00,
2013-03-29 08:03:00,43.0,20.0,-100.00,ESE,115,4.0,8.0,39,0.00,,,-99.99,8.000000,,2013-03-29 13:03:00,
2013-03-29 08:33:00,44.0,20.0,-100.00,ESE,121,6.0,8.0,38,0.00,,,-99.99,26.000000,,2013-03-29 13:33:00,
2013-03-29 08:43:00,44.0,20.0,-100.00,ESE,121,6.0,8.0,38,0.00,,,-99.99,26.000000,,2013-03-29 13:43:00,
2013-03-29 08:53:00,44.0,20.0,-100.00,ESE,121,6.0,8.0,38,0.00,,,-99.99,26.000000,,2013-03-29 13:53:00,
2013-03-29 09:03:00,44.0,20.0,-100.00,ESE,121,6.0,8.0,38,0.00,,,-99.99,26.000000,,2013-03-29 14:03:00,
2013-03-29 09:33:00,45.0,20.0,-100.00,ESE,121,5.0,8.0,37,0.00,,,-99.99,97.000000,,2013-03-29 14:33:00,
2013-03-29 09:42:00,45.0,20.0,-100.00,ESE,121,5.0,8.0,37,0.00,,,-99.99,97.000000,,2013-03-29 14:42:00,
2013-03-29 09:53:00,45.0,20.0,-100.00,ESE,121,5.0,8.0,37,0.00,,,-99.99,97.000000,,2013-03-29 14:53:00,
2013-03-29 10:02:00,45.0,20.0,-100.00,ESE,121,5.0,8.0,37,0.00,,,-99.99,97.000000,,2013-03-29 15:02:00,
2013-03-29 10:33:00,45.0,21.0,-100.00,SE,126,0.0,8.0,38,0.00,,,-99.99,105.000000,,2013-03-29 15:33:00,
2013-03-29 10:43:00,45.0,21.0,-100.00,SE,126,0.0,8.0,38,0.00,,,-99.99,105.000000,,2013-03-29 15:43:00,
2013-03-29 10:53:00,45.0,21.0,-100.00,SE,126,0.0,8.0,38,0.00,,,-99.99,105.000000,,2013-03-29 15:53:00,
2013-03-29 11:03:00,45.0,21.0,-100.00,SE,126,0.0,8.0,38,0.00,,,-99.99,105.000000,,2013-03-29 16:03:00,
2013-03-29 11:33:00,47.0,23.0,-100.00,East,87,0.0,5.0,39,0.00,,,-99.99,175.000000,,2013-03-29 16:33:00,
2013-03-29 11:43:00,47.0,23.0,-100.00,East,87,0.0,5.0,39,0.00,,,-99.99,175.000000,,2013-03-29 16:43:00,
2013-03-29 11:53:00,47.0,23.0,-100.00,East,87,0.0,5.0,39,0.00,,,-99.99,175.000000,,2013-03-29 16:53:00,
2013-03-29 12:03:00,47.0,23.0,-100.00,East,87,0.0,5.0,39,0.00,,,-99.99,175.000000,,2013-03-29 17:03:00,
2013-03-29 12:33:00,48.0,25.0,-100.00,ESE,119,0.0,0.0,40,0.00,,,-99.99,201.000000,,2013-03-29 17:33:00,
2013-03-29 12:43:00,48.0,25.0,-100.00,ESE,119,0.0,0.0,40,0.00,,,-99.99,201.000000,,2013-03-29 17:43:00,
2013-03-29 12:53:00,48.0,25.0,-100.00,ESE,119,0.0,0.0,40,0.00,,,-99.99,201.000000,,2013-03-29 17:53:00,
2013-03-29 13:02:00,48.0,25.0,-100.00,ESE,119,0.0,0.0,40,0.00,,,-99.99,201.000000,,2013-03-29 18:02:00,
2013-03-29 13:33:00,47.0,26.0,-100.00,ESE,118,5.0,10.0,43,0.00,,,0.00,211.000000,,2013-03-29 18:33:00,
2013-03-29 13:43:00,47.0,26.0,-100.00,ESE,118,5.0,10.0,43,0.00,,,0.00,211.000000,,2013-03-29 18:43:00,
2013-03-29 13:53:00,47.0,26.0,-100.00,ESE,118,5.0,10.0,43,0.00,,,0.00,211.000000,,2013-03-29 18:53:00,
2013-03-29 14:03:00,47.0,26.0,-100.00,ESE,118,5.0,10.0,43,0.00,,,0.00,211.000000,,2013-03-29 19:03:00,
2013-03-29 14:33:00,52.0,27.0,-100.00,SE,125,1.0,10.0,37,0.00,,,0.00,512.000000,,2013-03-29 19:33:00,
2013-03-29 14:43:00,52.0,27.0,-100.00,SE,125,1.0,10.0,37,0.00,,,0.00,512.000000,,2013-03-29 19:43:00,
2013-03-29 14:53:00,52.0,27.0,-100.00,SE,125,1.0,10.0,37,0.00,,,0.00,512.000000,,2013-03-29 19:53:00,
2013-03-29 15:03:00,52.0,27.0,-100.00,SE,125,1.0,10.0,37,0.00,,,0.00,512.000000,,2013-03-29 20:03:00,
2013-03-29 15:33:00,50.0,27.0,-100.00,SE,127,7.0,13.0,40,0.00,,,0.00,280.000000,,2013-03-29 20:33:00,
2013-03-29 15:42:00,50.0,27.0,-100.00,SE,127,7.0,13.0,40,0.00,,,0.00,280.000000,,2013-03-29 20:42:00,
2013-03-29 15:52:00,50.0,27.0,-100.00,SE,127,7.0,13.0,40,0.00,,,0.00,280.000000,,2013-03-29 20:52:00,
2013-03-29 16:02:00,50.0,27.0,-100.00,SE,127,7.0,13.0,40,0.00,,,0.00,280.000000,,2013-03-29 21:02:00,
2013-03-29 16:33:00,50.0,27.0,-100.00,ESE,118,6.0,12.0,41,0.00,,,0.00,215.000000,,2013-03-29 21:33:00,
2013-03-29 16:43:00,50.0,27.0,-100.00,ESE,118,6.0,12.0,41,0.00,,,0.00,215.000000,,2013-03-29 21:43:00,
2013-03-29 16:53:00,50.0,27.0,-100.00,ESE,118,6.0,12.0,41,0.00,,,0.00,215.000000,,2013-03-29 21:53:00,
2013-03-29 17:03:00,50.0,27.0,-100.00,ESE,118,6.0,12.0,41,0.00,,,0.00,215.000000,,2013-03-29 22:03:00,
2013-03-29 17:34:00,49.0,29.0,-100.00,SE,133,5.0,10.0,45,0.00,,,0.00,165.000000,,2013-03-29 22:34:00,
2013-03-29 17:43:00,49.0,29.0,-100.00,SE,133,5.0,10.0,45,0.00,,,0.00,165.000000,,2013-03-29 22:43:00,
2013-03-29 17:54:00,49.0,29.0,-100.00,SE,133,5.0,10.0,45,0.00,,,0.00,165.000000,,2013-03-29 22:54:00,
2013-03-29 18:03:00,49.0,29.0,-100.00,SE,133,5.0,10.0,45,0.00,,,0.00,165.000000,,2013-03-29 23:03:00,
2013-03-29 18:32:00,48.0,28.0,-100.00,East,91,5.0,11.0,45,0.00,,,0.00,71.000000,,2013-03-29 23:32:00,
2013-03-29 18:43:00,48.0,28.0,-100.00,East,91,5.0,11.0,45,0.00,,,0.00,71.000000,,2013-03-29 23:43:00,
2013-03-29 18:53:00,48.0,28.0,-100.00,East,91,5.0,11.0,45,0.00,,,0.00,71.000000,,2013-03-29 23:53:00,
2013-03-29 19:03:00,48.0,28.0,-100.00,East,91,5.0,11.0,45,0.00,,,0.00,71.000000,,2013-03-30 00:03:00,
2013-03-29 19:33:00,46.0,28.0,-100.00,ESE,109,0.0,7.0,50,0.00,,,0.00,11.000000,,2013-03-30 00:33:00,
2013-03-29 19:43:00,46.0,28.0,-100.00,ESE,109,0.0,7.0,50,0.00,,,0.00,11.000000,,2013-03-30 00:43:00,
2013-03-29 19:53:00,46.0,28.0,-100.00,ESE,109,0.0,7.0,50,0.00,,,0.00,11.000000,,2013-03-30 00:53:00,
2013-03-29 20:03:00,46.0,28.0,-100.00,ESE,109,0.0,7.0,50,0.00,,,0.00,11.000000,,2013-03-30 01:03:00,
2013-03-29 20:33:00,44.0,33.0,-100.00,ENE,76,3.0,7.0,64,0.00,,,0.00,0.000000,,2013-03-30 01:33:00,
2013-03-29 20:43:00,44.0,33.0,-100.00,ENE,76,3.0,7.0,64,0.00,,,0.00,0.000000,,2013-03-30 01:43:00,
2013-03-29 20:53:00,44.0,33.0,-100.00,ENE,76,3.0,7.0,64,0.00,,,0.00,0.000000,,2013-03-30 01:53:00,
2013-03-29 21:03:00,44.0,33.0,-100.00,ENE,76,3.0,7.0,64,0.00,,,0.00,0.000000,,2013-03-30 02:03:00,
2013-03-29 21:33:00,43.0,34.0,-100.00,ENE,65,0.0,5.0,71,0.00,,,0.00,0.000000,,2013-03-30 02:33:00,
2013-03-29 21:43:00,43.0,34.0,-100.00,ENE,65,0.0,5.0,71,0.00,,,0.00,0.000000,,2013-03-30 02:43:00,
2013-03-29 21:53:00,43.0,34.0,-100.00,ENE,65,0.0,5.0,71,0.00,,,0.00,0.000000,,2013-03-30 02:53:00,
2013-03-29 22:03:00,43.0,34.0,-100.00,ENE,65,0.0,5.0,71,0.00,,,0.00,0.000000,,2013-03-30 03:03:00,
2013-03-29 22:33:00,43.0,35.0,-100.00,North,7,0.0,7.0,73,0.00,,,0.00,0.000000,,2013-03-30 03:33:00,
2013-03-29 22:43:00,43.0,35.0,-100.00,North,7,0.0,7.0,73,0.00,,,0.00,0.000000,,2013-03-30 03:43:00,
2013-03-29 22:53:00,43.0,35.0,-100.00,North,7,0.0,7.0,73,0.00,,,0.00,0.000000,,2013-03-30 03:53:00,
2013-03-29 23:02:00,43.0,35.0,-100.00,North,7,0.0,7.0,73,0.00,,,0.00,0.000000,,2013-03-30 04:02:00,
2013-03-29 23:33:00,43.0,36.0,-100.00,NNE,33,0.0,0.0,76,0.00,,,0.00,0.000000,,2013-03-30 04:33:00,
2013-03-29 23:43:00,43.0,36.0,-100.00,NNE,33,0.0,0.0,76,0.00,,,0.00,0.000000,,2013-03-30 04:43:00,
2013-03-29 23:53:00,43.0,36.0,-100.00,NNE,33,0.0,0.0,76,0.00,,,0.00,0.000000,,2013-03-30 04:53:00,